sensor_id;sensor_type;location;lat;lon;timestamp;pressure;altitude;pressure_sealevel;temperature;humidity
31595;BME280;18200;48.726;8.892;2023-11-18T00:00:12;97542.28;;;17.53;40.44
31595;BME280;18200;48.726;8.892;2023-11-18T00:04:16;97546.84;;;17.38;40.41
31595;BME280;18200;48.726;8.892;2023-11-18T00:08:22;97543.00;;;17.43;40.42
31595;BME280;18200;48.726;8.892;2023-11-18T00:12:33;97543.41;;;17.45;39.89
31595;BME280;18200;48.726;8.892;2023-11-18T00:16:55;97539.88;;;17.41;40.59
31595;BME280;18200;48.726;8.892;2023-11-18T00:21:07;97538.47;;;17.61;40.08
31595;BME280;18200;48.726;8.892;2023-11-18T00:25:10;97536.69;;;17.25;40.36
31595;BME280;18200;48.726;8.892;2023-11-18T00:29:12;97540.56;;;17.24;40.26
31595;BME280;18200;48.726;8.892;2023-11-18T00:33:19;97547.25;;;16.82;41.42
31595;BME280;18200;48.726;8.892;2023-11-18T00:37:22;97556.31;;;16.53;41.96
31595;BME280;18200;48.726;8.892;2023-11-18T00:41:27;97546.78;;;17.28;41.27
31595;BME280;18200;48.726;8.892;2023-11-18T00:45:33;97542.28;;;17.53;40.76
31595;BME280;18200;48.726;8.892;2023-11-18T00:49:36;97536.56;;;17.68;40.88
31595;BME280;18200;48.726;8.892;2023-11-18T00:53:38;97543.06;;;17.50;40.65
31595;BME280;18200;48.726;8.892;2023-11-18T00:57:41;97553.47;;;16.06;43.10
31595;BME280;18200;48.726;8.892;2023-11-18T01:01:44;97546.28;;;16.57;42.25
31595;BME280;18200;48.726;8.892;2023-11-18T01:05:46;97547.59;;;17.32;41.11
31595;BME280;18200;48.726;8.892;2023-11-18T01:09:52;97549.38;;;16.59;42.10
31595;BME280;18200;48.726;8.892;2023-11-18T01:13:55;97544.22;;;16.47;42.92
31595;BME280;18200;48.726;8.892;2023-11-18T01:18:11;97544.78;;;17.18;41.87
31595;BME280;18200;48.726;8.892;2023-11-18T01:22:22;97557.75;;;17.42;41.14
31595;BME280;18200;48.726;8.892;2023-11-18T01:26:41;97573.41;;;17.04;41.82
31595;BME280;18200;48.726;8.892;2023-11-18T01:30:43;97575.47;;;17.22;42.12
31595;BME280;18200;48.726;8.892;2023-11-18T01:34:48;97581.25;;;17.17;41.64
31595;BME280;18200;48.726;8.892;2023-11-18T01:38:52;97580.75;;;17.00;42.35
31595;BME280;18200;48.726;8.892;2023-11-18T01:42:58;97574.13;;;17.52;41.47
31595;BME280;18200;48.726;8.892;2023-11-18T01:47:00;97562.75;;;17.33;41.28
31595;BME280;18200;48.726;8.892;2023-11-18T01:51:07;97558.44;;;17.25;41.56
31595;BME280;18200;48.726;8.892;2023-11-18T01:55:10;97557.97;;;17.16;41.67
31595;BME280;18200;48.726;8.892;2023-11-18T01:59:10;97555.13;;;17.56;41.00
31595;BME280;18200;48.726;8.892;2023-11-18T02:03:18;97559.09;;;17.11;41.62
31595;BME280;18200;48.726;8.892;2023-11-18T02:07:18;97562.09;;;17.57;41.23
31595;BME280;18200;48.726;8.892;2023-11-18T02:11:30;97560.06;;;17.40;41.38
31595;BME280;18200;48.726;8.892;2023-11-18T02:15:36;97562.91;;;16.19;44.14
31595;BME280;18200;48.726;8.892;2023-11-18T02:19:38;97554.88;;;16.26;43.44
31595;BME280;18200;48.726;8.892;2023-11-18T02:23:40;97550.50;;;17.63;40.65
31595;BME280;18200;48.726;8.892;2023-11-18T02:27:42;97553.28;;;17.77;40.08
31595;BME280;18200;48.726;8.892;2023-11-18T02:31:44;97544.75;;;17.75;40.01
31595;BME280;18200;48.726;8.892;2023-11-18T02:35:53;97559.84;;;17.08;41.66
31595;BME280;18200;48.726;8.892;2023-11-18T02:40:01;97549.22;;;17.47;40.32
31595;BME280;18200;48.726;8.892;2023-11-18T02:44:05;97547.28;;;17.47;40.47
31595;BME280;18200;48.726;8.892;2023-11-18T02:48:10;97550.50;;;17.60;40.54
31595;BME280;18200;48.726;8.892;2023-11-18T02:52:10;97553.94;;;17.50;40.22
31595;BME280;18200;48.726;8.892;2023-11-18T02:56:11;97557.06;;;17.52;40.33
31595;BME280;18200;48.726;8.892;2023-11-18T03:00:12;97551.94;;;17.40;40.46
31595;BME280;18200;48.726;8.892;2023-11-18T03:04:18;97551.44;;;17.24;39.71
31595;BME280;18200;48.726;8.892;2023-11-18T03:08:19;97557.59;;;17.21;40.41
31595;BME280;18200;48.726;8.892;2023-11-18T03:12:19;97549.94;;;17.33;40.20
31595;BME280;18200;48.726;8.892;2023-11-18T03:16:20;97550.69;;;17.30;40.88
31595;BME280;18200;48.726;8.892;2023-11-18T03:20:21;97559.16;;;17.22;40.26
31595;BME280;18200;48.726;8.892;2023-11-18T03:24:23;97550.72;;;16.79;40.03
31595;BME280;18200;48.726;8.892;2023-11-18T03:28:23;97548.25;;;17.11;40.24
31595;BME280;18200;48.726;8.892;2023-11-18T03:32:24;97549.03;;;17.12;40.00
31595;BME280;18200;48.726;8.892;2023-11-18T03:36:24;97552.81;;;16.96;40.16
31595;BME280;18200;48.726;8.892;2023-11-18T03:40:25;97551.28;;;17.02;39.58
31595;BME280;18200;48.726;8.892;2023-11-18T03:44:27;97557.84;;;16.94;40.16
31595;BME280;18200;48.726;8.892;2023-11-18T03:48:29;97568.25;;;16.49;40.79
31595;BME280;18200;48.726;8.892;2023-11-18T03:52:30;97557.59;;;16.66;40.50
31595;BME280;18200;48.726;8.892;2023-11-18T03:56:30;97560.47;;;16.84;40.45
31595;BME280;18200;48.726;8.892;2023-11-18T04:00:31;97556.47;;;16.67;40.40
31595;BME280;18200;48.726;8.892;2023-11-18T04:04:33;97558.47;;;16.37;40.39
31595;BME280;18200;48.726;8.892;2023-11-18T04:08:33;97554.66;;;16.42;40.73
31595;BME280;18200;48.726;8.892;2023-11-18T04:12:34;97557.59;;;16.66;40.13
31595;BME280;18200;48.726;8.892;2023-11-18T04:16:35;97569.94;;;16.60;40.84
31595;BME280;18200;48.726;8.892;2023-11-18T04:20:35;97569.53;;;16.58;41.08
31595;BME280;18200;48.726;8.892;2023-11-18T04:24:36;97574.81;;;16.84;40.45
31595;BME280;18200;48.726;8.892;2023-11-18T04:28:37;97570.38;;;16.66;40.89
31595;BME280;18200;48.726;8.892;2023-11-18T04:32:38;97571.41;;;16.14;41.02
31595;BME280;18200;48.726;8.892;2023-11-18T04:36:41;97564.53;;;16.23;41.65
31595;BME280;18200;48.726;8.892;2023-11-18T04:40:41;97549.06;;;16.27;41.09
31595;BME280;18200;48.726;8.892;2023-11-18T04:44:44;97560.19;;;16.15;41.74
31595;BME280;18200;48.726;8.892;2023-11-18T04:48:45;97552.34;;;16.07;41.50
31595;BME280;18200;48.726;8.892;2023-11-18T04:52:45;97550.00;;;15.72;42.24
31595;BME280;18200;48.726;8.892;2023-11-18T04:56:45;97556.13;;;15.99;41.89
31595;BME280;18200;48.726;8.892;2023-11-18T05:00:46;97551.38;;;16.25;41.76
31595;BME280;18200;48.726;8.892;2023-11-18T05:04:48;97548.25;;;16.23;41.44
31595;BME280;18200;48.726;8.892;2023-11-18T05:08:49;97546.19;;;15.77;41.98
31595;BME280;18200;48.726;8.892;2023-11-18T05:12:49;97545.03;;;16.11;41.80
31595;BME280;18200;48.726;8.892;2023-11-18T05:16:55;97538.28;;;16.31;41.52
31595;BME280;18200;48.726;8.892;2023-11-18T05:20:56;97535.97;;;16.33;41.36
31595;BME280;18200;48.726;8.892;2023-11-18T05:24:57;97546.00;;;16.29;40.99
31595;BME280;18200;48.726;8.892;2023-11-18T05:28:57;97545.16;;;16.25;41.08
31595;BME280;18200;48.726;8.892;2023-11-18T05:32:58;97550.31;;;15.97;41.30
31595;BME280;18200;48.726;8.892;2023-11-18T05:36:58;97541.53;;;15.74;41.95
31595;BME280;18200;48.726;8.892;2023-11-18T05:40:59;97543.88;;;15.75;41.84
31595;BME280;18200;48.726;8.892;2023-11-18T05:45:02;97548.88;;;16.10;41.48
31595;BME280;18200;48.726;8.892;2023-11-18T05:49:03;97543.50;;;16.13;41.63
31595;BME280;18200;48.726;8.892;2023-11-18T05:53:08;97544.13;;;16.00;41.14
31595;BME280;18200;48.726;8.892;2023-11-18T05:57:09;97546.53;;;16.05;41.58
31595;BME280;18200;48.726;8.892;2023-11-18T06:01:09;97543.47;;;16.10;41.09
31595;BME280;18200;48.726;8.892;2023-11-18T06:05:11;97537.88;;;16.29;40.80
31595;BME280;18200;48.726;8.892;2023-11-18T06:09:12;97536.41;;;16.02;41.15
31595;BME280;18200;48.726;8.892;2023-11-18T06:13:20;97536.34;;;15.95;40.98
31595;BME280;18200;48.726;8.892;2023-11-18T06:17:21;97554.66;;;16.05;41.31
31595;BME280;18200;48.726;8.892;2023-11-18T06:21:26;97541.94;;;16.12;40.61
31595;BME280;18200;48.726;8.892;2023-11-18T06:25:30;97554.31;;;15.77;40.68
31595;BME280;18200;48.726;8.892;2023-11-18T06:29:31;97549.56;;;15.40;42.18
31595;BME280;18200;48.726;8.892;2023-11-18T06:33:32;97554.06;;;15.89;41.44
31595;BME280;18200;48.726;8.892;2023-11-18T06:37:32;97571.50;;;15.88;40.81
31595;BME280;18200;48.726;8.892;2023-11-18T06:41:33;97559.16;;;15.94;41.34
31595;BME280;18200;48.726;8.892;2023-11-18T06:45:35;97568.00;;;15.31;41.11
31595;BME280;18200;48.726;8.892;2023-11-18T06:49:35;97571.13;;;14.36;43.37
31595;BME280;18200;48.726;8.892;2023-11-18T06:53:37;97554.91;;;14.81;43.39
31595;BME280;18200;48.726;8.892;2023-11-18T06:57:37;97548.00;;;14.84;42.57
31595;BME280;18200;48.726;8.892;2023-11-18T07:01:39;97541.22;;;14.48;42.82
31595;BME280;18200;48.726;8.892;2023-11-18T07:05:41;97552.75;;;14.45;43.05
31595;BME280;18200;48.726;8.892;2023-11-18T07:09:41;97539.59;;;14.66;44.48
31595;BME280;18200;48.726;8.892;2023-11-18T07:13:42;97554.03;;;14.73;42.81
31595;BME280;18200;48.726;8.892;2023-11-18T07:17:42;97564.22;;;14.38;43.61
31595;BME280;18200;48.726;8.892;2023-11-18T07:21:43;97563.91;;;15.15;43.65
31595;BME280;18200;48.726;8.892;2023-11-18T07:25:44;97565.31;;;15.58;42.54
31595;BME280;18200;48.726;8.892;2023-11-18T07:29:44;97565.41;;;15.65;42.88
31595;BME280;18200;48.726;8.892;2023-11-18T07:33:45;97560.72;;;15.35;42.79
31595;BME280;18200;48.726;8.892;2023-11-18T07:37:49;97566.78;;;15.51;42.92
31595;BME280;18200;48.726;8.892;2023-11-18T07:41:49;97554.63;;;15.72;42.40
31595;BME280;18200;48.726;8.892;2023-11-18T07:45:50;97562.09;;;15.48;42.71
31595;BME280;18200;48.726;8.892;2023-11-18T07:49:53;97561.34;;;15.25;43.45
31595;BME280;18200;48.726;8.892;2023-11-18T07:53:53;97549.41;;;15.86;42.86
31595;BME280;18200;48.726;8.892;2023-11-18T07:57:54;97555.38;;;15.13;44.22
31595;BME280;18200;48.726;8.892;2023-11-18T08:01:54;97552.34;;;16.07;42.42
31595;BME280;18200;48.726;8.892;2023-11-18T08:05:56;97560.09;;;16.45;41.87
31595;BME280;18200;48.726;8.892;2023-11-18T08:09:58;97566.56;;;16.74;41.70
31595;BME280;18200;48.726;8.892;2023-11-18T08:13:58;97558.75;;;16.65;42.29
31595;BME280;18200;48.726;8.892;2023-11-18T08:17:59;97575.47;;;16.71;41.92
31595;BME280;18200;48.726;8.892;2023-11-18T08:21:59;97576.88;;;17.01;41.09
31595;BME280;18200;48.726;8.892;2023-11-18T08:25:59;97569.97;;;17.15;41.04
31595;BME280;18200;48.726;8.892;2023-11-18T08:30:00;97566.09;;;17.12;40.47
31595;BME280;18200;48.726;8.892;2023-11-18T08:34:00;97572.03;;;17.32;39.91
31595;BME280;18200;48.726;8.892;2023-11-18T08:38:01;97570.63;;;16.97;41.20
31595;BME280;18200;48.726;8.892;2023-11-18T08:42:01;97560.06;;;17.40;39.84
31595;BME280;18200;48.726;8.892;2023-11-18T08:46:02;97550.13;;;17.65;39.49
31595;BME280;18200;48.726;8.892;2023-11-18T08:50:02;97547.03;;;17.63;39.41
31595;BME280;18200;48.726;8.892;2023-11-18T08:54:12;97562.34;;;18.13;39.29
31595;BME280;18200;48.726;8.892;2023-11-18T08:58:25;97550.19;;;17.79;39.62
31595;BME280;18200;48.726;8.892;2023-11-18T09:02:34;97539.41;;;18.04;39.62
31595;BME280;18200;48.726;8.892;2023-11-18T09:06:37;97533.19;;;18.10;40.45
31595;BME280;18200;48.726;8.892;2023-11-18T09:10:39;97541.38;;;18.17;39.45
31595;BME280;18200;48.726;8.892;2023-11-18T09:14:41;97544.09;;;18.17;38.62
31595;BME280;18200;48.726;8.892;2023-11-18T09:18:43;97536.41;;;18.47;38.91
31595;BME280;18200;48.726;8.892;2023-11-18T09:22:46;97532.13;;;18.61;38.48
31595;BME280;18200;48.726;8.892;2023-11-18T09:26:47;97541.84;;;18.47;39.43
31595;BME280;18200;48.726;8.892;2023-11-18T09:30:48;97542.59;;;19.11;38.84
31595;BME280;18200;48.726;8.892;2023-11-18T09:34:53;97540.31;;;18.89;38.63
31595;BME280;18200;48.726;8.892;2023-11-18T09:38:54;97537.19;;;19.08;38.43
31595;BME280;18200;48.726;8.892;2023-11-18T09:42:54;97535.59;;;19.00;39.46
31595;BME280;18200;48.726;8.892;2023-11-18T09:47:00;97537.91;;;19.19;38.73
31595;BME280;18200;48.726;8.892;2023-11-18T09:51:05;97530.13;;;19.28;38.14
31595;BME280;18200;48.726;8.892;2023-11-18T09:55:15;97527.84;;;18.84;39.05
31595;BME280;18200;48.726;8.892;2023-11-18T10:03:31;97520.06;;;18.97;39.29
31595;BME280;18200;48.726;8.892;2023-11-18T10:07:32;97527.66;;;19.72;37.87
31595;BME280;18200;48.726;8.892;2023-11-18T10:11:36;97518.94;;;20.05;38.04
31595;BME280;18200;48.726;8.892;2023-11-18T10:15:36;97524.03;;;20.03;37.06
31595;BME280;18200;48.726;8.892;2023-11-18T10:23:58;97528.22;;;20.19;36.61
31595;BME280;18200;48.726;8.892;2023-11-18T10:28:01;97528.22;;;20.19;36.42
31595;BME280;18200;48.726;8.892;2023-11-18T10:32:06;97527.84;;;18.45;39.77
31595;BME280;18200;48.726;8.892;2023-11-18T10:36:21;97531.78;;;20.08;36.61
31595;BME280;18200;48.726;8.892;2023-11-18T10:40:25;97532.50;;;20.23;35.59
31595;BME280;18200;48.726;8.892;2023-11-18T10:44:28;97529.75;;;20.20;36.27
31595;BME280;18200;48.726;8.892;2023-11-18T10:48:30;97529.63;;;20.48;35.94
31595;BME280;18200;48.726;8.892;2023-11-18T10:52:30;97523.63;;;20.05;36.39
31595;BME280;18200;48.726;8.892;2023-11-18T10:56:31;97522.78;;;20.19;35.52
31595;BME280;18200;48.726;8.892;2023-11-18T11:00:49;97517.31;;;20.22;35.96
31595;BME280;18200;48.726;8.892;2023-11-18T11:04:49;97499.34;;;20.28;35.98
31595;BME280;18200;48.726;8.892;2023-11-18T11:08:51;97505.03;;;19.82;36.92
31595;BME280;18200;48.726;8.892;2023-11-18T11:12:54;97500.16;;;19.21;37.86
31595;BME280;18200;48.726;8.892;2023-11-18T11:16:56;97507.19;;;20.16;37.11
31595;BME280;18200;48.726;8.892;2023-11-18T11:21:06;97509.31;;;20.49;36.35
31595;BME280;18200;48.726;8.892;2023-11-18T11:25:22;97508.78;;;20.09;37.04
31595;BME280;18200;48.726;8.892;2023-11-18T11:29:32;97505.63;;;20.22;36.28
31595;BME280;18200;48.726;8.892;2023-11-18T11:33:39;97485.34;;;20.23;36.17
31595;BME280;18200;48.726;8.892;2023-11-18T11:37:43;97483.78;;;20.14;36.45
31595;BME280;18200;48.726;8.892;2023-11-18T11:41:44;97485.75;;;20.18;36.52
31595;BME280;18200;48.726;8.892;2023-11-18T11:45:51;97475.19;;;20.23;36.43
31595;BME280;18200;48.726;8.892;2023-11-18T11:50:00;97470.50;;;20.24;36.39
31595;BME280;18200;48.726;8.892;2023-11-18T11:54:06;97441.72;;;20.16;36.67
31595;BME280;18200;48.726;8.892;2023-11-18T11:58:33;97442.44;;;20.20;36.44
31595;BME280;18200;48.726;8.892;2023-11-18T12:02:34;97436.28;;;20.08;36.14
31595;BME280;18200;48.726;8.892;2023-11-18T12:06:41;97446.53;;;19.97;36.44
31595;BME280;18200;48.726;8.892;2023-11-18T12:10:54;97436.97;;;20.27;35.96
31595;BME280;18200;48.726;8.892;2023-11-18T12:14:56;97428.56;;;20.00;36.80
31595;BME280;18200;48.726;8.892;2023-11-18T12:19:39;97418.38;;;20.07;36.29
31595;BME280;18200;48.726;8.892;2023-11-18T12:24:15;97409.97;;;19.81;36.06
31595;BME280;18200;48.726;8.892;2023-11-18T12:28:17;97399.06;;;19.81;35.94
31595;BME280;18200;48.726;8.892;2023-11-18T12:32:59;97399.75;;;19.99;36.20
31595;BME280;18200;48.726;8.892;2023-11-18T12:37:17;97384.47;;;20.08;35.68
31595;BME280;18200;48.726;8.892;2023-11-18T12:41:33;97384.03;;;20.13;35.71
31595;BME280;18200;48.726;8.892;2023-11-18T12:45:43;97378.03;;;19.81;36.36
31595;BME280;18200;48.726;8.892;2023-11-18T12:49:45;97383.47;;;19.88;35.56
31595;BME280;18200;48.726;8.892;2023-11-18T12:53:50;97379.97;;;19.84;36.61
31595;BME280;18200;48.726;8.892;2023-11-18T12:57:53;97373.69;;;19.22;37.36
31595;BME280;18200;48.726;8.892;2023-11-18T13:01:54;97375.59;;;19.97;35.49
31595;BME280;18200;48.726;8.892;2023-11-18T13:05:57;97381.16;;;19.83;36.62
31595;BME280;18200;48.726;8.892;2023-11-18T13:09:57;97378.38;;;19.18;36.72
31595;BME280;18200;48.726;8.892;2023-11-18T13:14:00;97373.53;;;19.54;36.35
31595;BME280;18200;48.726;8.892;2023-11-18T13:18:02;97356.91;;;19.96;35.64
31595;BME280;18200;48.726;8.892;2023-11-18T13:22:13;97346.69;;;18.51;38.26
31595;BME280;18200;48.726;8.892;2023-11-18T13:26:15;97344.31;;;18.68;37.82
31595;BME280;18200;48.726;8.892;2023-11-18T13:30:15;97346.69;;;18.55;38.90
31595;BME280;18200;48.726;8.892;2023-11-18T13:34:18;97353.25;;;18.75;38.20
31595;BME280;18200;48.726;8.892;2023-11-18T13:38:20;97346.16;;;18.99;37.85
31595;BME280;18200;48.726;8.892;2023-11-18T13:42:24;97334.81;;;19.11;37.75
31595;BME280;18200;48.726;8.892;2023-11-18T13:46:28;97322.25;;;19.38;37.25
31595;BME280;18200;48.726;8.892;2023-11-18T13:50:29;97302.84;;;19.22;37.95
31595;BME280;18200;48.726;8.892;2023-11-18T13:54:29;97289.06;;;19.98;37.07
31595;BME280;18200;48.726;8.892;2023-11-18T13:58:30;97282.19;;;19.86;37.14
31595;BME280;18200;48.726;8.892;2023-11-18T14:02:30;97265.50;;;19.22;37.71
31595;BME280;18200;48.726;8.892;2023-11-18T14:06:30;97253.88;;;20.10;36.12
31595;BME280;18200;48.726;8.892;2023-11-18T14:10:31;97265.50;;;19.77;37.82
31595;BME280;18200;48.726;8.892;2023-11-18T14:14:33;97247.69;;;20.06;36.47
31595;BME280;18200;48.726;8.892;2023-11-18T14:18:33;97250.38;;;19.69;37.41
31595;BME280;18200;48.726;8.892;2023-11-18T14:22:37;97237.88;;;19.75;37.31
31595;BME280;18200;48.726;8.892;2023-11-18T14:26:38;97241.47;;;19.07;38.58
31595;BME280;18200;48.726;8.892;2023-11-18T14:30:41;97242.81;;;19.43;38.01
31595;BME280;18200;48.726;8.892;2023-11-18T14:34:42;97254.22;;;19.75;37.92
31595;BME280;18200;48.726;8.892;2023-11-18T14:38:42;97253.03;;;19.25;38.35
31595;BME280;18200;48.726;8.892;2023-11-18T14:42:45;97257.03;;;19.06;38.78
31595;BME280;18200;48.726;8.892;2023-11-18T14:46:46;97261.53;;;19.34;38.28
31595;BME280;18200;48.726;8.892;2023-11-18T14:50:47;97235.81;;;19.42;38.40
31595;BME280;18200;48.726;8.892;2023-11-18T14:54:47;97240.88;;;19.88;37.64
31595;BME280;18200;48.726;8.892;2023-11-18T14:58:47;97264.94;;;19.52;38.03
31595;BME280;18200;48.726;8.892;2023-11-18T15:02:50;97255.19;;;19.95;36.93
31595;BME280;18200;48.726;8.892;2023-11-18T15:06:50;97253.06;;;20.21;36.73
31595;BME280;18200;48.726;8.892;2023-11-18T15:10:53;97257.19;;;19.95;37.32
31595;BME280;18200;48.726;8.892;2023-11-18T15:14:54;97249.00;;;20.32;37.06
31595;BME280;18200;48.726;8.892;2023-11-18T15:18:54;97245.44;;;19.54;37.94
31595;BME280;18200;48.726;8.892;2023-11-18T15:22:56;97234.09;;;19.62;37.48
31595;BME280;18200;48.726;8.892;2023-11-18T15:26:57;97223.19;;;20.03;36.68
31595;BME280;18200;48.726;8.892;2023-11-18T15:30:58;97212.69;;;20.01;36.84
31595;BME280;18200;48.726;8.892;2023-11-18T15:35:01;97218.22;;;19.94;36.89
31595;BME280;18200;48.726;8.892;2023-11-18T15:39:01;97220.03;;;19.67;37.11
31595;BME280;18200;48.726;8.892;2023-11-18T15:43:04;97209.88;;;19.20;37.97
31595;BME280;18200;48.726;8.892;2023-11-18T15:47:07;97212.09;;;19.83;37.04
31595;BME280;18200;48.726;8.892;2023-11-18T15:51:09;97219.22;;;19.70;36.77
31595;BME280;18200;48.726;8.892;2023-11-18T15:55:13;97188.84;;;19.72;37.00
31595;BME280;18200;48.726;8.892;2023-11-18T15:59:14;97183.19;;;19.49;37.39
31595;BME280;18200;48.726;8.892;2023-11-18T16:03:14;97172.59;;;19.61;37.16
31595;BME280;18200;48.726;8.892;2023-11-18T16:07:14;97178.78;;;19.62;37.29
31595;BME280;18200;48.726;8.892;2023-11-18T16:11:15;97179.22;;;19.97;36.69
31595;BME280;18200;48.726;8.892;2023-11-18T16:15:15;97176.25;;;19.44;37.39
31595;BME280;18200;48.726;8.892;2023-11-18T16:19:16;97179.34;;;19.83;37.10
31595;BME280;18200;48.726;8.892;2023-11-18T16:23:16;97188.25;;;19.50;37.21
31595;BME280;18200;48.726;8.892;2023-11-18T16:27:17;97182.69;;;19.09;37.77
31595;BME280;18200;48.726;8.892;2023-11-18T16:31:17;97175.59;;;19.19;37.69
31595;BME280;18200;48.726;8.892;2023-11-18T16:35:18;97177.19;;;19.20;37.96
31595;BME280;18200;48.726;8.892;2023-11-18T16:39:20;97158.19;;;19.57;37.09
31595;BME280;18200;48.726;8.892;2023-11-18T16:43:21;97154.47;;;18.86;38.71
31595;BME280;18200;48.726;8.892;2023-11-18T16:47:21;97133.81;;;18.12;39.14
31595;BME280;18200;48.726;8.892;2023-11-18T16:51:22;97126.25;;;17.51;39.81
31595;BME280;18200;48.726;8.892;2023-11-18T16:55:22;97110.75;;;19.51;36.49
31595;BME280;18200;48.726;8.892;2023-11-18T16:59:22;97107.22;;;18.58;38.11
31595;BME280;18200;48.726;8.892;2023-11-18T17:03:23;97100.88;;;18.72;38.59
31595;BME280;18200;48.726;8.892;2023-11-18T17:07:23;97089.56;;;18.77;38.19
31595;BME280;18200;48.726;8.892;2023-11-18T17:11:24;97091.59;;;18.66;38.41
31595;BME280;18200;48.726;8.892;2023-11-18T17:15:25;97083.50;;;18.55;37.77
31595;BME280;18200;48.726;8.892;2023-11-18T17:19:25;97081.88;;;18.69;37.78
31595;BME280;18200;48.726;8.892;2023-11-18T17:23:26;97098.81;;;18.28;38.53
31595;BME280;18200;48.726;8.892;2023-11-18T17:27:26;97083.50;;;17.72;39.54
31595;BME280;18200;48.726;8.892;2023-11-18T17:31:26;97067.84;;;19.18;37.03
31595;BME280;18200;48.726;8.892;2023-11-18T17:35:28;97049.16;;;19.20;36.92
31595;BME280;18200;48.726;8.892;2023-11-18T17:39:28;97045.06;;;18.98;37.01
31595;BME280;18200;48.726;8.892;2023-11-18T17:43:29;96999.66;;;18.88;36.69
31595;BME280;18200;48.726;8.892;2023-11-18T17:47:29;97015.72;;;18.75;36.93
31595;BME280;18200;48.726;8.892;2023-11-18T17:51:30;97026.81;;;18.95;37.10
31595;BME280;18200;48.726;8.892;2023-11-18T17:55:31;97015.38;;;19.51;36.33
31595;BME280;18200;48.726;8.892;2023-11-18T17:59:32;97018.22;;;19.41;36.04
31595;BME280;18200;48.726;8.892;2023-11-18T18:03:32;97020.88;;;19.48;36.52
31595;BME280;18200;48.726;8.892;2023-11-18T18:07:33;97034.13;;;19.46;36.49
31595;BME280;18200;48.726;8.892;2023-11-18T18:11:33;97044.94;;;19.12;37.42
31595;BME280;18200;48.726;8.892;2023-11-18T18:15:34;97036.19;;;18.90;37.21
31595;BME280;18200;48.726;8.892;2023-11-18T18:19:34;97018.31;;;19.64;35.91
31595;BME280;18200;48.726;8.892;2023-11-18T18:23:34;96998.28;;;19.47;36.47
31595;BME280;18200;48.726;8.892;2023-11-18T18:27:35;96990.34;;;19.60;36.07
31595;BME280;18200;48.726;8.892;2023-11-18T18:31:35;96971.47;;;19.05;37.12
31595;BME280;18200;48.726;8.892;2023-11-18T18:35:36;96971.09;;;19.40;36.73
31595;BME280;18200;48.726;8.892;2023-11-18T18:39:39;96974.22;;;19.42;37.06
31595;BME280;18200;48.726;8.892;2023-11-18T18:43:40;96967.22;;;19.41;37.34
31595;BME280;18200;48.726;8.892;2023-11-18T18:47:40;96981.59;;;19.75;36.71
31595;BME280;18200;48.726;8.892;2023-11-18T18:51:41;96977.78;;;19.32;37.28
31595;BME280;18200;48.726;8.892;2023-11-18T18:55:42;96971.56;;;19.35;36.88
31595;BME280;18200;48.726;8.892;2023-11-18T18:59:42;96957.88;;;19.42;37.23
31595;BME280;18200;48.726;8.892;2023-11-18T19:03:43;96941.53;;;19.42;37.06
31595;BME280;18200;48.726;8.892;2023-11-18T19:07:43;96924.63;;;18.39;39.09
31595;BME280;18200;48.726;8.892;2023-11-18T19:11:45;96900.03;;;18.94;38.03
31595;BME280;18200;48.726;8.892;2023-11-18T19:15:45;96893.41;;;18.57;38.67
31595;BME280;18200;48.726;8.892;2023-11-18T19:19:46;96883.94;;;19.06;37.80
31595;BME280;18200;48.726;8.892;2023-11-18T19:23:46;96870.00;;;18.67;38.66
31595;BME280;18200;48.726;8.892;2023-11-18T19:27:46;96855.41;;;19.18;37.96
31595;BME280;18200;48.726;8.892;2023-11-18T19:31:47;96845.88;;;18.69;39.47
31595;BME280;18200;48.726;8.892;2023-11-18T19:35:47;96843.69;;;18.53;38.58
31595;BME280;18200;48.726;8.892;2023-11-18T19:39:47;96824.97;;;18.18;39.86
31595;BME280;18200;48.726;8.892;2023-11-18T19:43:48;96814.41;;;18.98;38.04
31595;BME280;18200;48.726;8.892;2023-11-18T19:47:49;96812.38;;;19.06;37.79
31595;BME280;18200;48.726;8.892;2023-11-18T19:51:49;96828.59;;;19.13;38.28
31595;BME280;18200;48.726;8.892;2023-11-18T19:55:50;96831.88;;;19.31;37.28
31595;BME280;18200;48.726;8.892;2023-11-18T19:59:51;96835.06;;;19.26;37.92
31595;BME280;18200;48.726;8.892;2023-11-18T20:03:54;96832.06;;;19.74;36.62
31595;BME280;18200;48.726;8.892;2023-11-18T20:07:54;96845.75;;;19.93;36.20
31595;BME280;18200;48.726;8.892;2023-11-18T20:11:55;96843.13;;;19.33;38.06
31595;BME280;18200;48.726;8.892;2023-11-18T20:15:55;96839.56;;;19.93;36.26
31595;BME280;18200;48.726;8.892;2023-11-18T20:19:55;96821.00;;;19.84;36.17
31595;BME280;18200;48.726;8.892;2023-11-18T20:23:56;96813.19;;;19.86;37.09
31595;BME280;18200;48.726;8.892;2023-11-18T20:27:57;96798.50;;;19.77;36.87
31595;BME280;18200;48.726;8.892;2023-11-18T20:31:57;96778.16;;;19.35;37.38
31595;BME280;18200;48.726;8.892;2023-11-18T20:35:58;96791.91;;;19.51;37.13
31595;BME280;18200;48.726;8.892;2023-11-18T20:39:59;96793.56;;;19.45;37.21
31595;BME280;18200;48.726;8.892;2023-11-18T20:43:59;96804.38;;;19.75;36.66
31595;BME280;18200;48.726;8.892;2023-11-18T20:48:01;96808.78;;;19.69;36.54
31595;BME280;18200;48.726;8.892;2023-11-18T20:52:02;96783.88;;;19.67;37.33
31595;BME280;18200;48.726;8.892;2023-11-18T20:56:04;96753.13;;;19.40;37.66
31595;BME280;18200;48.726;8.892;2023-11-18T21:00:06;96742.25;;;19.40;37.71
31595;BME280;18200;48.726;8.892;2023-11-18T21:04:07;96774.03;;;19.50;37.95
31595;BME280;18200;48.726;8.892;2023-11-18T21:08:07;96787.56;;;19.80;37.42
31595;BME280;18200;48.726;8.892;2023-11-18T21:12:10;96787.06;;;19.62;37.05
31595;BME280;18200;48.726;8.892;2023-11-18T21:16:11;96775.34;;;19.65;37.19
31595;BME280;18200;48.726;8.892;2023-11-18T21:20:12;96764.66;;;19.51;37.92
31595;BME280;18200;48.726;8.892;2023-11-18T21:24:13;96772.91;;;18.57;40.42
31595;BME280;18200;48.726;8.892;2023-11-18T21:28:13;96775.63;;;19.17;38.86
31595;BME280;18200;48.726;8.892;2023-11-18T21:32:13;96774.84;;;19.17;39.07